Time;durP1;ratioP1;P1;durP2;ratioP2;P2;SDS_P1;SDS_P2;PMS_P1;PMS_P2;Temp;Humidity;BMP_temperature;BMP_pressure;BME280_temperature;BME280_humidity;BME280_pressure;Samples;Min_cycle;Max_cycle;Signal;HPM_P1;HPM_P2
2023/09/27 00:01:19;;;;;;;;;;;;;;;;;;5073451;28;20446;-86
2023/09/27 00:03:44;;;;;;;;;;;;;;;;;;5063940;28;19917;-84
2023/09/27 00:06:09;;;;;;;;;;;;;;;;;;5062798;28;19955;-86
2023/09/27 00:08:35;;;;;;;;;;;;;;;;;;5073353;28;19962;-85
2023/09/27 00:11:02;;;;;;;;;;;;;;;;;;5075136;28;20005;-86
2023/09/27 00:13:28;;;;;;;;;;;;;;;;;;5073928;28;19951;-85
2023/09/27 00:15:53;;;;;;;;;;;;;;;;;;5073759;28;19956;-85
2023/09/27 00:18:18;;;;;;;;;;;;;;;;;;5071109;28;19916;-85
2023/09/27 00:20:44;;;;;;;;;;;;;;;;;;5071794;28;19921;-85
2023/09/27 00:23:09;;;;;;;;;;;;;;;;;;5070251;28;19919;-85
2023/09/27 00:25:35;;;;;;;;;;;;;;;;;;5060846;28;19923;-86
2023/09/27 00:28:00;;;;;;;;;;;;;;;;;;5073866;28;20406;-85
2023/09/27 00:30:25;;;;;;;;;;;;;;;;;;5058635;28;19966;-86
2023/09/27 00:32:53;;;;;;;;;;;;;;;;;;5075301;28;19917;-85
2023/09/27 00:35:22;;;;;;;;;;;;;;;;;;5068862;28;20780;-86
2023/09/27 00:37:47;;;;;;;;;;;;;;;;;;5069722;28;20387;-85
2023/09/27 00:40:14;;;;;;;;;;;;;;;;;;5074050;28;19962;-85
2023/09/27 00:42:39;;;;;;;;;;;;;;;;;;5066681;28;19919;-85
2023/09/27 00:45:05;;;;;;;;;;;;;;;;;;5065139;28;19917;-86
2023/09/27 00:47:30;;;;;;;;;;;;;;;;;;5042854;28;20610;-86
2023/09/27 00:49:56;;;;;;;;;;;;;;;;;;5067513;28;19920;-86
2023/09/27 00:52:21;;;;;;;;;;;;;;;;;;5052320;28;19977;-85
2023/09/27 00:54:46;;;;;;;;;;;;;;;;;;5065948;28;19916;-86
2023/09/27 00:57:12;;;;;;;;;;;;;;;;;;5042944;28;20006;-85
2023/09/27 00:59:37;;;;;;;;;;;;;;;;;;5060851;28;19982;-85
2023/09/27 01:02:02;;;;;;;;;;;;;;;;;;5045240;28;20093;-85
2023/09/27 01:04:28;;;;;;;;;;;;;;;;;;5063257;28;19916;-85
2023/09/27 01:06:53;;;;;;;;;;;;;;;;;;5071597;28;19962;-85
2023/09/27 01:09:18;;;;;;;;;;;;;;;;;;5074699;28;19923;-86
2023/09/27 01:11:47;;;;;;;;;;;;;;;;;;5073455;28;19913;-86
2023/09/27 01:14:13;;;;;;;;;;;;;;;;;;5068788;28;19924;-85
2023/09/27 01:16:38;;;;;;;;;;;;;;;;;;5076467;28;19916;-85
2023/09/27 01:19:04;;;;;;;;;;;;;;;;;;5084118;28;20307;-85
2023/09/27 01:21:29;;;;;;;;;;;;;;;;;;5069909;28;19916;-85
2023/09/27 01:23:55;;;;;;;;;;;;;;;;;;5066516;28;20070;-86
2023/09/27 01:26:20;;;;;;;;;;;;;;;;;;5083041;28;20414;-85
2023/09/27 01:28:49;;;;;;;;;;;;;;;;;;5087228;28;19927;-85
2023/09/27 01:31:14;;;;;;;;;;;;;;;;;;5071459;28;20010;-85
2023/09/27 01:33:40;;;;;;;;;;;;;;;;;;5086322;28;20069;-86
2023/09/27 01:36:05;;;;;;;;;;;;;;;;;;5075131;28;20383;-85
2023/09/27 01:38:31;;;;;;;;;;;;;;;;;;5088955;28;19927;-85
2023/09/27 01:40:57;;;;;;;;;;;;;;;;;;5056019;28;19962;-85
2023/09/27 01:43:22;;;;;;;;;;;;;;;;;;5088720;28;19916;-85
2023/09/27 01:45:47;;;;;;;;;;;;;;;;;;5054988;28;19913;-85
2023/09/27 01:48:13;;;;;;;;;;;;;;;;;;5069758;28;19939;-85
2023/09/27 01:50:38;;;;;;;;;;;;;;;;;;5075500;28;20395;-85
2023/09/27 01:53:04;;;;;;;;;;;;;;;;;;5053821;28;19916;-85
2023/09/27 01:55:29;;;;;;;;;;;;;;;;;;5074195;28;19916;-85
2023/09/27 01:57:54;;;;;;;;;;;;;;;;;;5058094;28;20387;-86
2023/09/27 02:00:19;;;;;;;;;;;;;;;;;;5062545;28;19961;-85
2023/09/27 02:02:45;;;;;;;;;;;;;;;;;;5075331;28;19939;-83
2023/09/27 02:05:10;;;;;;;;;;;;;;;;;;5072679;28;19916;-85
2023/09/27 02:07:36;;;;;;;;;;;;;;;;;;5067029;28;19916;-85
2023/09/27 02:10:02;;;;;;;;;;;;;;;;;;5075899;28;19955;-85
2023/09/27 02:12:28;;;;;;;;;;;;;;;;;;5071720;28;19970;-86
2023/09/27 02:14:53;;;;;;;;;;;;;;;;;;5073440;28;19912;-85
2023/09/27 02:17:18;;;;;;;;;;;;;;;;;;5071113;28;19916;-86
2023/09/27 02:19:44;;;;;;;;;;;;;;;;;;5075477;28;19912;-85
2023/09/27 02:22:09;;;;;;;;;;;;;;;;;;5070325;28;19916;-86
2023/09/27 02:24:36;;;;;;;;;;;;;;;;;;5072671;28;19938;-85
2023/09/27 02:27:02;;;;;;;;;;;;;;;;;;5069637;28;19935;-85
2023/09/27 02:29:27;;;;;;;;;;;;;;;;;;5071135;28;19912;-85
2023/09/27 02:31:52;;;;;;;;;;;;;;;;;;5075910;28;19920;-85
2023/09/27 02:34:17;;;;;;;;;;;;;;;;;;5075805;28;19912;-85
2023/09/27 02:36:43;;;;;;;;;;;;;;;;;;5077294;28;19916;-85
2023/09/27 02:39:10;;;;;;;;;;;;;;;;;;5047462;28;19921;-85
2023/09/27 02:41:35;;;;;;;;;;;;;;;;;;5057787;28;20291;-84
2023/09/27 02:44:00;;;;;;;;;;;;;;;;;;5067294;28;19923;-86
2023/09/27 02:46:26;;;;;;;;;;;;;;;;;;5063927;28;19917;-85
2023/09/27 02:48:52;;;;;;;;;;;;;;;;;;5075994;28;19912;-85
2023/09/27 02:51:18;;;;;;;;;;;;;;;;;;5048001;28;19960;-85
2023/09/27 02:53:44;;;;;;;;;;;;;;;;;;5075553;28;20382;-85
2023/09/27 02:56:11;;;;;;;;;;;;;;;;;;5066548;28;20015;-86
2023/09/27 02:58:36;;;;;;;;;;;;;;;;;;5056297;28;20022;-85
2023/09/27 03:01:01;;;;;;;;;;;;;;;;;;5069994;28;20041;-86
2023/09/27 03:03:27;;;;;;;;;;;;;;;;;;5065695;28;19944;-84
2023/09/27 03:05:53;;;;;;;;;;;;;;;;;;5078742;28;19923;-85
2023/09/27 03:08:18;;;;;;;;;;;;;;;;;;5073689;28;19912;-85
2023/09/27 03:10:44;;;;;;;;;;;;;;;;;;5082140;28;19947;-85
2023/09/27 03:13:09;;;;;;;;;;;;;;;;;;5078706;28;19912;-85
2023/09/27 03:15:35;;;;;;;;;;;;;;;;;;5073076;28;19916;-85
2023/09/27 03:18:00;;;;;;;;;;;;;;;;;;5078301;28;19916;-85
2023/09/27 03:20:26;;;;;;;;;;;;;;;;;;5056129;28;19966;-83
2023/09/27 03:22:52;;;;;;;;;;;;;;;;;;5078247;28;20007;-88
2023/09/27 03:25:17;;;;;;;;;;;;;;;;;;5078395;28;19944;-85
2023/09/27 03:27:42;;;;;;;;;;;;;;;;;;5056503;28;19924;-85
2023/09/27 03:30:08;;;;;;;;;;;;;;;;;;5063742;28;19967;-84
2023/09/27 03:32:36;;;;;;;;;;;;;;;;;;5064405;28;19917;-84
2023/09/27 03:35:01;;;;;;;;;;;;;;;;;;5062472;28;19938;-85
2023/09/27 03:37:27;;;;;;;;;;;;;;;;;;5057006;28;19913;-85
2023/09/27 03:39:52;;;;;;;;;;;;;;;;;;5041391;28;19917;-85
2023/09/27 03:42:18;;;;;;;;;;;;;;;;;;5037783;28;19919;-84
2023/09/27 03:44:43;;;;;;;;;;;;;;;;;;5054585;28;19916;-85
2023/09/27 03:47:09;;;;;;;;;;;;;;;;;;5034286;28;19996;-85
2023/09/27 03:49:34;;;;;;;;;;;;;;;;;;5054382;28;19960;-85
2023/09/27 03:51:59;;;;;;;;;;;;;;;;;;5054876;28;19956;-85
2023/09/27 03:54:25;;;;;;;;;;;;;;;;;;5052342;28;19916;-85
2023/09/27 03:56:51;;;;;;;;;;;;;;;;;;5053009;28;19923;-86
2023/09/27 03:59:16;;;;;;;;;;;;;;;;;;5039959;28;19923;-85
2023/09/27 04:01:41;;;;;;;;;;;;;;;;;;5057500;28;19913;-84
2023/09/27 04:04:07;;;;;;;;;;;;;;;;;;5037295;28;20000;-85
2023/09/27 04:06:32;;;;;;;;;;;;;;;;;;5045090;28;20399;-84
2023/09/27 04:08:57;;;;;;;;;;;;;;;;;;5068327;28;20287;-84
2023/09/27 04:11:23;;;;;;;;;;;;;;;;;;5053473;28;20356;-85
2023/09/27 04:13:48;;;;;;;;;;;;;;;;;;5054829;28;19912;-85
2023/09/27 04:16:14;;;;;;;;;;;;;;;;;;5061456;28;20302;-84
2023/09/27 04:18:39;;;;;;;;;;;;;;;;;;5042026;28;19919;-85
2023/09/27 04:21:05;;;;;;;;;;;;;;;;;;5054426;28;19999;-84
2023/09/27 04:23:30;;;;;;;;;;;;;;;;;;5064299;28;19966;-84
2023/09/27 04:25:56;;;;;;;;;;;;;;;;;;5052890;28;20334;-84
2023/09/27 04:28:21;;;;;;;;;;;;;;;;;;5064077;28;19978;-84
2023/09/27 04:30:46;;;;;;;;;;;;;;;;;;5060406;28;20021;-85
2023/09/27 04:33:13;;;;;;;;;;;;;;;;;;5069190;28;19935;-83
2023/09/27 04:35:39;;;;;;;;;;;;;;;;;;5066282;28;19923;-83
2023/09/27 04:38:04;;;;;;;;;;;;;;;;;;5059126;28;19920;-83
2023/09/27 04:40:30;;;;;;;;;;;;;;;;;;5060678;28;19916;-83
2023/09/27 04:42:55;;;;;;;;;;;;;;;;;;5063912;28;20023;-84
2023/09/27 04:45:20;;;;;;;;;;;;;;;;;;5066738;28;19925;-82
2023/09/27 04:47:46;;;;;;;;;;;;;;;;;;5068269;28;19920;-83
2023/09/27 04:50:11;;;;;;;;;;;;;;;;;;5065690;28;20011;-83
2023/09/27 04:52:37;;;;;;;;;;;;;;;;;;5062319;28;20273;-82
2023/09/27 04:55:02;;;;;;;;;;;;;;;;;;5066876;28;19916;-82
2023/09/27 04:57:28;;;;;;;;;;;;;;;;;;5068232;28;20359;-85
2023/09/27 04:59:53;;;;;;;;;;;;;;;;;;5056966;28;19916;-85
2023/09/27 05:02:18;;;;;;;;;;;;;;;;;;5046227;28;19913;-83
2023/09/27 05:04:45;;;;;;;;;;;;;;;;;;5073712;28;19921;-88
2023/09/27 05:07:10;;;;;;;;;;;;;;;;;;5066855;28;19939;-85
2023/09/27 05:09:36;;;;;;;;;;;;;;;;;;5061978;28;20296;-83
2023/09/27 05:12:01;;;;;;;;;;;;;;;;;;5055220;28;19921;-82
2023/09/27 05:14:26;;;;;;;;;;;;;;;;;;5058787;28;20040;-84
2023/09/27 05:16:52;;;;;;;;;;;;;;;;;;5043004;28;19913;-84
2023/09/27 05:19:17;;;;;;;;;;;;;;;;;;5062831;28;19917;-84
2023/09/27 05:21:43;;;;;;;;;;;;;;;;;;5043593;28;19951;-84
2023/09/27 05:24:08;;;;;;;;;;;;;;;;;;5061519;28;19917;-84
2023/09/27 05:26:34;;;;;;;;;;;;;;;;;;5063345;28;20020;-83
2023/09/27 05:28:59;;;;;;;;;;;;;;;;;;5078388;28;19927;-83
2023/09/27 05:31:24;;;;;;;;;;;;;;;;;;5082046;28;19960;-84
2023/09/27 05:33:50;;;;;;;;;;;;;;;;;;5066307;28;20418;-83
2023/09/27 05:36:15;;;;;;;;;;;;;;;;;;5067625;28;19912;-83
2023/09/27 05:38:41;;;;;;;;;;;;;;;;;;5081261;28;19920;-83
2023/09/27 05:41:07;;;;;;;;;;;;;;;;;;5068476;28;19924;-83
2023/09/27 05:43:32;;;;;;;;;;;;;;;;;;5081492;28;19923;-83
2023/09/27 05:45:57;;;;;;;;;;;;;;;;;;5050167;28;19919;-83
2023/09/27 05:48:23;;;;;;;;;;;;;;;;;;5082316;28;19960;-83
2023/09/27 05:50:48;;;;;;;;;;;;;;;;;;5067735;28;20310;-83
2023/09/27 05:53:16;;;;;;;;;;;;;;;;;;5066124;28;19916;-83
2023/09/27 05:55:42;;;;;;;;;;;;;;;;;;5085045;28;19963;-83
2023/09/27 05:58:07;;;;;;;;;;;;;;;;;;5060580;28;19952;-83
2023/09/27 06:00:37;;;;;;;;;;;;;;;;;;5057461;28;19921;-83
2023/09/27 06:03:04;;;;;;;;;;;;;;;;;;5058203;28;20022;-84
2023/09/27 06:05:29;;;;;;;;;;;;;;;;;;5088023;28;19962;-84
2023/09/27 06:07:54;;;;;;;;;;;;;;;;;;5063871;28;19912;-83
2023/09/27 06:10:20;;;;;;;;;;;;;;;;;;5068462;28;19917;-83
2023/09/27 06:12:46;;;;;;;;;;;;;;;;;;5058113;28;19942;-83
2023/09/27 06:15:12;;;;;;;;;;;;;;;;;;5074069;28;19921;-83
2023/09/27 06:17:38;;;;;;;;;;;;;;;;;;5074592;28;19920;-84
2023/09/27 06:20:05;;;;;;;;;;;;;;;;;;5059483;28;19920;-83
2023/09/27 06:22:30;;;;;;;;;;;;;;;;;;5076809;28;19912;-84
2023/09/27 06:24:55;;;;;;;;;;;;;;;;;;5074901;28;19916;-84
2023/09/27 06:27:21;;;;;;;;;;;;;;;;;;5073405;28;20015;-83
2023/09/27 06:29:46;;;;;;;;;;;;;;;;;;5060940;28;19924;-84
2023/09/27 06:32:12;;;;;;;;;;;;;;;;;;5068133;28;19970;-83
2023/09/27 06:34:37;;;;;;;;;;;;;;;;;;5077746;28;20014;-83
2023/09/27 06:37:02;;;;;;;;;;;;;;;;;;5046992;28;19979;-83
2023/09/27 06:39:27;;;;;;;;;;;;;;;;;;5076979;28;19917;-83
2023/09/27 06:41:54;;;;;;;;;;;;;;;;;;5075320;28;19927;-83
2023/09/27 06:44:20;;;;;;;;;;;;;;;;;;5051598;28;19912;-83
2023/09/27 06:46:46;;;;;;;;;;;;;;;;;;5070975;28;19923;-83
2023/09/27 06:49:16;;;;;;;;;;;;;;;;;;5068689;28;20387;-83
2023/09/27 06:51:43;;;;;;;;;;;;;;;;;;5062233;28;20315;-83
2023/09/27 06:54:08;;;;;;;;;;;;;;;;;;5076713;28;19919;-83
2023/09/27 06:56:34;;;;;;;;;;;;;;;;;;5068984;28;19917;-83
2023/09/27 06:58:59;;;;;;;;;;;;;;;;;;5076180;28;19951;-83
2023/09/27 07:01:25;;;;;;;;;;;;;;;;;;5088705;28;19976;-83
2023/09/27 07:03:50;;;;;;;;;;;;;;;;;;5087529;28;19912;-85
2023/09/27 07:06:16;;;;;;;;;;;;;;;;;;5090231;28;19969;-85
2023/09/27 07:08:43;;;;;;;;;;;;;;;;;;5073775;28;19916;-82
2023/09/27 07:11:09;;;;;;;;;;;;;;;;;;5056379;28;20021;-83
2023/09/27 07:13:34;;;;;;;;;;;;;;;;;;5057475;28;19950;-82
2023/09/27 07:15:59;;;;;;;;;;;;;;;;;;5072871;28;20011;-84
2023/09/27 07:18:25;;;;;;;;;;;;;;;;;;5072593;28;19913;-86
2023/09/27 07:20:51;;;;;;;;;;;;;;;;;;5072400;28;19927;-84
2023/09/27 07:23:16;;;;;;;;;;;;;;;;;;5072558;28;19936;-81
2023/09/27 07:25:41;;;;;;;;;;;;;;;;;;5072158;28;19946;-84
2023/09/27 07:28:07;;;;;;;;;;;;;;;;;;5071909;28;19924;-84
2023/09/27 07:30:32;;;;;;;;;;;;;;;;;;5071727;28;19917;-84
2023/09/27 07:32:57;;;;;;;;;;;;;;;;;;5072056;28;20427;-83
2023/09/27 07:35:24;;;;;;;;;;;;;;;;;;5054449;28;19963;-84
2023/09/27 07:37:49;;;;;;;;;;;;;;;;;;5071744;28;19958;-83
2023/09/27 07:40:14;;;;;;;;;;;;;;;;;;5059724;28;19917;-82
2023/09/27 07:42:40;;;;;;;;;;;;;;;;;;5073165;28;19978;-83
2023/09/27 07:45:06;;;;;;;;;;;;;;;;;;5072296;28;19916;-83
2023/09/27 07:47:33;;;;;;;;;;;;;;;;;;5073507;28;19952;-86
2023/09/27 07:49:59;;;;;;;;;;;;;;;;;;5072967;28;19920;-85
2023/09/27 07:52:25;;;;;;;;;;;;;;;;;;5069295;28;19927;-85
2023/09/27 07:54:51;;;;;;;;;;;;;;;;;;5074780;28;19970;-85
2023/09/27 07:57:17;;;;;;;;;;;;;;;;;;5082965;28;19923;-82
2023/09/27 07:59:42;;;;;;;;;;;;;;;;;;5059763;28;19916;-84
2023/09/27 08:02:09;;;;;;;;;;;;;;;;;;5073483;28;19924;-84
2023/09/27 08:04:34;;;;;;;;;;;;;;;;;;5073170;28;19917;-84
2023/09/27 08:07:00;;;;;;;;;;;;;;;;;;5073608;28;19923;-84
2023/09/27 08:09:25;;;;;;;;;;;;;;;;;;5072700;28;19916;-87
2023/09/27 08:11:51;;;;;;;;;;;;;;;;;;5073506;28;19943;-84
2023/09/27 08:14:19;;;;;;;;;;;;;;;;;;5073096;28;19943;-87
2023/09/27 08:16:44;;;;;;;;;;;;;;;;;;5072563;28;20328;-84
2023/09/27 08:19:10;;;;;;;;;;;;;;;;;;5071088;28;20025;-85
2023/09/27 08:21:35;;;;;;;;;;;;;;;;;;5072864;28;20015;-84
2023/09/27 08:24:01;;;;;;;;;;;;;;;;;;5071737;28;19924;-84
2023/09/27 08:26:26;;;;;;;;;;;;;;;;;;5072996;28;20436;-84
2023/09/27 08:28:51;;;;;;;;;;;;;;;;;;5069119;28;19928;-84
2023/09/27 08:31:17;;;;;;;;;;;;;;;;;;5073817;28;19955;-83
2023/09/27 08:33:43;;;;;;;;;;;;;;;;;;5065080;28;20018;-83
2023/09/27 08:36:08;;;;;;;;;;;;;;;;;;5082512;28;19981;-84
2023/09/27 08:38:34;;;;;;;;;;;;;;;;;;5071165;28;19950;-84
2023/09/27 08:40:59;;;;;;;;;;;;;;;;;;5073309;28;19920;-84
2023/09/27 08:43:26;;;;;;;;;;;;;;;;;;5069164;28;19923;-84
2023/09/27 08:45:51;;;;;;;;;;;;;;;;;;5072979;28;20311;-83
2023/09/27 08:48:20;;;;;;;;;;;;;;;;;;5071802;28;19916;-84
2023/09/27 08:50:45;;;;;;;;;;;;;;;;;;5069344;28;20366;-83
2023/09/27 08:53:11;;;;;;;;;;;;;;;;;;5068565;28;20023;-83
2023/09/27 08:55:36;;;;;;;;;;;;;;;;;;5070923;28;19913;-83
2023/09/27 08:58:02;;;;;;;;;;;;;;;;;;5070264;28;20399;-83
2023/09/27 09:00:28;;;;;;;;;;;;;;;;;;5070738;28;20383;-83
2023/09/27 09:02:57;;;;;;;;;;;;;;;;;;5075155;28;20322;-86
2023/09/27 09:05:22;;;;;;;;;;;;;;;;;;5071162;28;19919;-84
2023/09/27 09:07:48;;;;;;;;;;;;;;;;;;5066770;28;20383;-82
2023/09/27 09:10:13;;;;;;;;;;;;;;;;;;5072921;28;20407;-84
2023/09/27 09:12:39;;;;;;;;;;;;;;;;;;5063738;28;19920;-82
2023/09/27 09:15:05;;;;;;;;;;;;;;;;;;5078984;28;19912;-85
2023/09/27 09:17:30;;;;;;;;;;;;;;;;;;5075663;28;19931;-83
2023/09/27 09:19:56;;;;;;;;;;;;;;;;;;5076898;28;19912;-83
2023/09/27 09:22:21;;;;;;;;;;;;;;;;;;5079452;28;19916;-83
2023/09/27 09:24:46;;;;;;;;;;;;;;;;;;5077157;28;20318;-84
2023/09/27 09:27:12;;;;;;;;;;;;;;;;;;5079421;28;19924;-84
2023/09/27 09:29:37;;;;;;;;;;;;;;;;;;5077928;28;19934;-82
2023/09/27 09:32:03;;;;;;;;;;;;;;;;;;5072385;28;19920;-84
2023/09/27 09:34:28;;;;;;;;;;;;;;;;;;5080426;28;19912;-84
2023/09/27 09:36:54;;;;;;;;;;;;;;;;;;5084657;28;19916;-83
2023/09/27 09:39:19;;;;;;;;;;;;;;;;;;5070289;28;19926;-83
2023/09/27 09:41:47;;;;;;;;;;;;;;;;;;5084951;28;19916;-83
2023/09/27 09:44:13;;;;;;;;;;;;;;;;;;5062947;28;19913;-83
2023/09/27 09:46:39;;;;;;;;;;;;;;;;;;5087576;28;19923;-84
2023/09/27 09:49:04;;;;;;;;;;;;;;;;;;5054689;28;19912;-84
2023/09/27 09:51:30;;;;;;;;;;;;;;;;;;5086973;28;19973;-84
2023/09/27 09:53:55;;;;;;;;;;;;;;;;;;5070771;28;19913;-82
2023/09/27 09:56:21;;;;;;;;;;;;;;;;;;5088631;28;20430;-84
2023/09/27 09:58:46;;;;;;;;;;;;;;;;;;5075357;28;20331;-84
2023/09/27 10:01:12;;;;;;;;;;;;;;;;;;5074487;28;19916;-84
2023/09/27 10:03:37;;;;;;;;;;;;;;;;;;5088336;28;19961;-83
2023/09/27 10:06:04;;;;;;;;;;;;;;;;;;5075957;28;19923;-84
2023/09/27 10:08:33;;;;;;;;;;;;;;;;;;5072565;28;19938;-82
2023/09/27 10:10:58;;;;;;;;;;;;;;;;;;5044043;28;19955;-85
2023/09/27 10:13:23;;;;;;;;;;;;;;;;;;5075750;28;19916;-84
2023/09/27 10:15:49;;;;;;;;;;;;;;;;;;5071333;28;19916;-84
2023/09/27 10:18:14;;;;;;;;;;;;;;;;;;5075516;28;20298;-83
2023/09/27 10:20:39;;;;;;;;;;;;;;;;;;5070515;28;19916;-81
2023/09/27 10:23:05;;;;;;;;;;;;;;;;;;5075403;28;19920;-83
2023/09/27 10:25:30;;;;;;;;;;;;;;;;;;5078099;28;19964;-84
2023/09/27 10:27:55;;;;;;;;;;;;;;;;;;5076465;28;19978;-84
2023/09/27 10:30:21;;;;;;;;;;;;;;;;;;5078833;28;19963;-83
2023/09/27 10:32:46;;;;;;;;;;;;;;;;;;5076695;28;19916;-86
2023/09/27 10:35:11;;;;;;;;;;;;;;;;;;5080081;28;20437;-83
2023/09/27 10:37:36;;;;;;;;;;;;;;;;;;5077185;28;19951;-84
2023/09/27 10:40:05;;;;;;;;;;;;;;;;;;5078919;28;19917;-83
2023/09/27 10:42:31;;;;;;;;;;;;;;;;;;5076052;28;20023;-83
2023/09/27 10:45:00;;;;;;;;;;;;;;;;;;5079424;28;20030;-83
2023/09/27 10:47:25;;;;;;;;;;;;;;;;;;5071821;28;20012;-83
2023/09/27 10:49:51;;;;;;;;;;;;;;;;;;5070202;28;20010;-83
2023/09/27 10:52:16;;;;;;;;;;;;;;;;;;5063944;28;19943;-83
2023/09/27 10:54:41;;;;;;;;;;;;;;;;;;5044575;28;20088;-82
2023/09/27 10:57:06;;;;;;;;;;;;;;;;;;5070094;28;19916;-83
2023/09/27 10:59:32;;;;;;;;;;;;;;;;;;5063105;28;19923;-83
2023/09/27 11:01:59;;;;;;;;;;;;;;;;;;5079662;28;19916;-85
2023/09/27 11:04:24;;;;;;;;;;;;;;;;;;5037289;28;20395;-83
2023/09/27 11:06:49;;;;;;;;;;;;;;;;;;5063269;28;19948;-83
2023/09/27 11:09:19;;;;;;;;;;;;;;;;;;5073055;28;20449;-83
2023/09/27 11:11:44;;;;;;;;;;;;;;;;;;5062977;28;19917;-83
2023/09/27 11:14:09;;;;;;;;;;;;;;;;;;5059419;28;19917;-83
2023/09/27 11:16:35;;;;;;;;;;;;;;;;;;5046255;28;19922;-83
2023/09/27 11:19:02;;;;;;;;;;;;;;;;;;5073048;28;20354;-83
2023/09/27 11:21:27;;;;;;;;;;;;;;;;;;5070154;28;20368;-83
2023/09/27 11:23:53;;;;;;;;;;;;;;;;;;5073477;28;19989;-84
2023/09/27 11:26:19;;;;;;;;;;;;;;;;;;5074532;28;20216;-84
2023/09/27 11:28:45;;;;;;;;;;;;;;;;;;5073827;28;19926;-83
2023/09/27 11:31:10;;;;;;;;;;;;;;;;;;5060977;28;19916;-83
2023/09/27 11:33:35;;;;;;;;;;;;;;;;;;5058449;28;19916;-84
2023/09/27 11:36:01;;;;;;;;;;;;;;;;;;5059074;28;20290;-83
2023/09/27 11:38:26;;;;;;;;;;;;;;;;;;5073073;28;19923;-84
2023/09/27 11:40:52;;;;;;;;;;;;;;;;;;5059860;28;19923;-84
2023/09/27 11:43:17;;;;;;;;;;;;;;;;;;5072510;28;19923;-84
2023/09/27 11:46:11;;;;;;;;;;;;;;;;;;;;;
2023/09/27 11:49:05;;;;;;;;;;;;;;;;;;5076056;28;19920;-89
2023/09/27 11:55:00;;;;;;;;;;;;;;;;;;4978119;28;19925;-87
2023/09/27 11:57:57;;;;;;;;;;;;;;;;;;5080271;28;19916;-87
2023/09/27 12:01:06;;;;;;;;;;;;;;;;;;5062941;28;19924;-86
2023/09/27 12:04:07;;;;;;;;;;;;;;;;;;5080361;28;19983;-88
2023/09/27 12:10:04;;;;;;;;;;;;;;;;;;5074971;28;19916;-87
2023/09/27 12:13:03;;;;;;;;;;;;;;;;;;5064366;28;19917;-87
2023/09/27 12:16:34;;;;;;;;;;;;;;;;;;;;;
2023/09/27 12:19:35;;;;;;;;;;;;;;;;;;5026153;28;19955;-87
2023/09/27 12:23:03;;;;;;;;;;;;;;;;;;;;;
2023/09/27 12:25:58;;;;;;;;;;;;;;;;;;5059019;28;19923;-88
2023/09/27 12:28:47;;;;;;;;;;;;;;;;;;5052659;28;19955;-87
2023/09/27 12:31:41;;;;;;;;;;;;;;;;;;5057188;28;19923;-88
2023/09/27 12:37:51;;;;;;;;;;;;;;;;;;5054842;28;19917;-88
2023/09/27 12:40:41;;;;;;;;;;;;;;;;;;5089151;22;19935;-85
2023/09/27 12:43:07;;;;;;;;;;;;;;;;;;5055987;28;19916;-84
2023/09/27 12:45:32;;;;;;;;;;;;;;;;;;5077612;28;19916;-84
2023/09/27 12:47:57;;;;;;;;;;;;;;;;;;5070699;28;19916;-84
2023/09/27 12:50:30;;;;;;;;;;;;;;;;;;5080504;28;20007;-84
2023/09/27 12:52:55;;;;;;;;;;;;;;;;;;5070837;28;19916;-84
2023/09/27 12:55:20;;;;;;;;;;;;;;;;;;5062351;28;19934;-85
2023/09/27 12:57:46;;;;;;;;;;;;;;;;;;5048991;28;20002;-82
2023/09/27 13:00:12;;;;;;;;;;;;;;;;;;5076480;28;19947;-84
2023/09/27 13:02:37;;;;;;;;;;;;;;;;;;5082842;28;19920;-84
2023/09/27 13:05:03;;;;;;;;;;;;;;;;;;5055238;28;19912;-85
2023/09/27 13:07:29;;;;;;;;;;;;;;;;;;5056537;28;19955;-84
2023/09/27 13:09:54;;;;;;;;;;;;;;;;;;5087387;28;19919;-84
2023/09/27 13:12:19;;;;;;;;;;;;;;;;;;5086768;28;19984;-84
2023/09/27 13:14:45;;;;;;;;;;;;;;;;;;5086901;28;19919;-84
2023/09/27 13:17:10;;;;;;;;;;;;;;;;;;5060072;28;19963;-84
2023/09/27 13:19:35;;;;;;;;;;;;;;;;;;5073264;28;19919;-84
2023/09/27 13:22:01;;;;;;;;;;;;;;;;;;5076866;28;20387;-84
2023/09/27 13:24:26;;;;;;;;;;;;;;;;;;5081466;28;19917;-84
2023/09/27 13:26:51;;;;;;;;;;;;;;;;;;5084244;28;20450;-84
2023/09/27 13:29:17;;;;;;;;;;;;;;;;;;5049995;28;19922;-84
2023/09/27 13:31:42;;;;;;;;;;;;;;;;;;5056441;28;19943;-81
2023/09/27 13:34:07;;;;;;;;;;;;;;;;;;5039888;28;19912;-84
2023/09/27 13:36:33;;;;;;;;;;;;;;;;;;5080362;28;20394;-83
2023/09/27 13:38:58;;;;;;;;;;;;;;;;;;5078694;28;20379;-84
2023/09/27 13:41:25;;;;;;;;;;;;;;;;;;5055898;28;20042;-84
2023/09/27 13:43:50;;;;;;;;;;;;;;;;;;5056855;28;19913;-84
2023/09/27 13:46:16;;;;;;;;;;;;;;;;;;5058920;28;19920;-83
2023/09/27 13:48:41;;;;;;;;;;;;;;;;;;5058745;28;19913;-84
2023/09/27 13:51:07;;;;;;;;;;;;;;;;;;5055698;28;20383;-84
2023/09/27 13:53:32;;;;;;;;;;;;;;;;;;5073587;28;19919;-84
2023/09/27 13:55:57;;;;;;;;;;;;;;;;;;5042143;28;19955;-84
2023/09/27 13:58:23;;;;;;;;;;;;;;;;;;5056013;28;19916;-84
2023/09/27 14:00:49;;;;;;;;;;;;;;;;;;5073143;28;19917;-84
2023/09/27 14:03:17;;;;;;;;;;;;;;;;;;5058499;28;19961;-85
2023/09/27 14:05:42;;;;;;;;;;;;;;;;;;5056862;28;19916;-85
2023/09/27 14:08:07;;;;;;;;;;;;;;;;;;5059124;28;19912;-84
2023/09/27 14:10:33;;;;;;;;;;;;;;;;;;5078735;28;19924;-84
2023/09/27 14:12:59;;;;;;;;;;;;;;;;;;5042505;28;19912;-84
2023/09/27 14:15:25;;;;;;;;;;;;;;;;;;5041318;28;20013;-84
2023/09/27 14:17:50;;;;;;;;;;;;;;;;;;5059983;28;20344;-84
2023/09/27 14:20:16;;;;;;;;;;;;;;;;;;5055655;28;19939;-84
2023/09/27 14:22:41;;;;;;;;;;;;;;;;;;5058418;28;20291;-84
2023/09/27 14:25:08;;;;;;;;;;;;;;;;;;5072643;28;19925;-84
2023/09/27 14:27:33;;;;;;;;;;;;;;;;;;5055007;28;19913;-85
2023/09/27 14:29:58;;;;;;;;;;;;;;;;;;5073625;28;19917;-84
2023/09/27 14:32:24;;;;;;;;;;;;;;;;;;5059961;28;20003;-84
2023/09/27 14:34:49;;;;;;;;;;;;;;;;;;5075265;28;19962;-85
2023/09/27 14:37:14;;;;;;;;;;;;;;;;;;5055470;28;19919;-85
2023/09/27 14:39:40;;;;;;;;;;;;;;;;;;5056449;28;19920;-85
2023/09/27 14:42:06;;;;;;;;;;;;;;;;;;5066561;28;20338;-83
2023/09/27 14:44:31;;;;;;;;;;;;;;;;;;5055337;28;19917;-83
2023/09/27 14:46:57;;;;;;;;;;;;;;;;;;5055651;28;20387;-83
2023/09/27 14:49:22;;;;;;;;;;;;;;;;;;5054385;28;20341;-83
2023/09/27 14:51:49;;;;;;;;;;;;;;;;;;5038843;28;20326;-83
2023/09/27 14:54:15;;;;;;;;;;;;;;;;;;5072657;28;19916;-84
2023/09/27 14:56:40;;;;;;;;;;;;;;;;;;5053778;28;19962;-84
2023/09/27 14:59:05;;;;;;;;;;;;;;;;;;5071676;28;20006;-84
2023/09/27 15:01:31;;;;;;;;;;;;;;;;;;5052895;28;20357;-84
2023/09/27 15:03:56;;;;;;;;;;;;;;;;;;5057934;28;19927;-83
2023/09/27 15:06:21;;;;;;;;;;;;;;;;;;5069093;28;19955;-85
2023/09/27 15:08:47;;;;;;;;;;;;;;;;;;5059404;28;19946;-82
2023/09/27 15:11:12;;;;;;;;;;;;;;;;;;5040500;28;20007;-84
2023/09/27 15:13:38;;;;;;;;;;;;;;;;;;5073501;28;20294;-85
2023/09/27 15:16:03;;;;;;;;;;;;;;;;;;5072607;28;20418;-84
2023/09/27 15:18:29;;;;;;;;;;;;;;;;;;5053142;28;20325;-85
2023/09/27 15:20:54;;;;;;;;;;;;;;;;;;5075424;28;19916;-84
2023/09/27 15:23:20;;;;;;;;;;;;;;;;;;5055437;28;20452;-84
2023/09/27 15:25:45;;;;;;;;;;;;;;;;;;5056771;28;19917;-85
2023/09/27 15:28:10;;;;;;;;;;;;;;;;;;5074814;28;19955;-84
2023/09/27 15:30:36;;;;;;;;;;;;;;;;;;5056527;28;19916;-85
2023/09/27 15:33:01;;;;;;;;;;;;;;;;;;5055452;28;19913;-84
2023/09/27 15:35:27;;;;;;;;;;;;;;;;;;5072943;28;19920;-84
2023/09/27 15:37:52;;;;;;;;;;;;;;;;;;5038072;28;19913;-85
2023/09/27 15:40:19;;;;;;;;;;;;;;;;;;5067502;28;19967;-84
2023/09/27 15:42:44;;;;;;;;;;;;;;;;;;5057722;28;20410;-83
2023/09/27 15:45:09;;;;;;;;;;;;;;;;;;5050851;28;20006;-83
2023/09/27 15:47:34;;;;;;;;;;;;;;;;;;5057818;28;20391;-84
2023/09/27 15:50:00;;;;;;;;;;;;;;;;;;5054249;28;20387;-83
2023/09/27 15:52:25;;;;;;;;;;;;;;;;;;5054469;28;19927;-84
2023/09/27 15:54:51;;;;;;;;;;;;;;;;;;5036788;28;19916;-84
2023/09/27 15:57:17;;;;;;;;;;;;;;;;;;5077657;28;19932;-83
2023/09/27 15:59:42;;;;;;;;;;;;;;;;;;5071731;28;19951;-84
2023/09/27 16:02:08;;;;;;;;;;;;;;;;;;5071867;28;20326;-84
2023/09/27 16:04:35;;;;;;;;;;;;;;;;;;5035904;28;19917;-84
2023/09/27 16:07:00;;;;;;;;;;;;;;;;;;5069126;28;19923;-84
2023/09/27 16:09:25;;;;;;;;;;;;;;;;;;5059199;28;19916;-84
2023/09/27 16:11:51;;;;;;;;;;;;;;;;;;5084946;28;19912;-85
2023/09/27 16:14:16;;;;;;;;;;;;;;;;;;5059447;28;19946;-85
2023/09/27 16:16:42;;;;;;;;;;;;;;;;;;5071768;28;20387;-86
2023/09/27 16:19:07;;;;;;;;;;;;;;;;;;5072735;28;19916;-85
2023/09/27 16:21:33;;;;;;;;;;;;;;;;;;5068729;28;19916;-87
2023/09/27 16:23:59;;;;;;;;;;;;;;;;;;5070956;28;20003;-86
2023/09/27 16:26:25;;;;;;;;;;;;;;;;;;5073859;28;20383;-87
2023/09/27 16:28:50;;;;;;;;;;;;;;;;;;5073454;28;19954;-87
2023/09/27 16:31:15;;;;;;;;;;;;;;;;;;5073326;28;19987;-87
2023/09/27 16:33:41;;;;;;;;;;;;;;;;;;5075726;28;19924;-87
2023/09/27 16:36:06;;;;;;;;;;;;;;;;;;5072844;28;20018;-90
2023/09/27 16:38:32;;;;;;;;;;;;;;;;;;5054878;28;19928;-89
2023/09/27 16:40:57;;;;;;;;;;;;;;;;;;5078106;28;20323;-88
2023/09/27 16:43:22;;;;;;;;;;;;;;;;;;5062454;28;19970;-87
2023/09/27 16:45:48;;;;;;;;;;;;;;;;;;5079072;28;20403;-86
2023/09/27 16:48:13;;;;;;;;;;;;;;;;;;5078280;28;19920;-88
2023/09/27 16:50:38;;;;;;;;;;;;;;;;;;5062261;28;19916;-88
2023/09/27 16:53:04;;;;;;;;;;;;;;;;;;5081247;28;19932;-88
2023/09/27 16:55:29;;;;;;;;;;;;;;;;;;5076349;28;19913;-87